Fair Play, South Carolina
Current Conditions -  °F | °C
As of 7:54 PM on Wednesday 22 Oct 2014 (Local Time) from KCEU Reporting Station
Clear Clear  
Wind Chill: 60°   Ceiling: Unl
Heat Index: 60°   Visibility: 10mi
Dew Point: 38°   Wind: 6mph
Humidity: 44%   Direction: 60°ENE
Pressure: 30.09"   Gusts: NA
Location:  34.51°N, 82.99°W
Report Text: KCEU 222354Z AUTO 06005KT 10SM CLR 16/03 A3009 RMK AO2 SLP186 T01560033 10217 20156 53011
Loading
Personal Weather Stations






























Interactive Weather Map
Tropical Storm Tracking
New forecast layout! Learn more

10-Day Weather Forecast

Advertisements
Track Severe Weather on mobile